sensor_id;sensor_type;location;lat;lon;timestamp;P1;durP1;ratioP1;P2;durP2;ratioP2
18334;SDS011;9293;49.524;10.964;2022-10-17T00:01:06;6.85;;;3.25;;
18334;SDS011;9293;49.524;10.964;2022-10-17T00:03:39;8.35;;;3.20;;
18334;SDS011;9293;49.524;10.964;2022-10-17T00:06:11;5.85;;;3.72;;
18334;SDS011;9293;49.524;10.964;2022-10-17T00:08:41;8.20;;;3.00;;
18334;SDS011;9293;49.524;10.964;2022-10-17T00:11:14;5.97;;;3.22;;
18334;SDS011;9293;49.524;10.964;2022-10-17T00:13:46;6.82;;;3.65;;
18334;SDS011;9293;49.524;10.964;2022-10-17T00:16:21;8.50;;;3.80;;
18334;SDS011;9293;49.524;10.964;2022-10-17T00:18:50;6.45;;;2.75;;
18334;SDS011;9293;49.524;10.964;2022-10-17T00:21:19;9.15;;;3.05;;
18334;SDS011;9293;49.524;10.964;2022-10-17T00:23:47;6.57;;;3.05;;
18334;SDS011;9293;49.524;10.964;2022-10-17T00:26:16;6.50;;;3.03;;
18334;SDS011;9293;49.524;10.964;2022-10-17T00:28:45;10.05;;;3.47;;
18334;SDS011;9293;49.524;10.964;2022-10-17T00:31:15;4.78;;;3.53;;
18334;SDS011;9293;49.524;10.964;2022-10-17T00:33:44;5.97;;;3.50;;
18334;SDS011;9293;49.524;10.964;2022-10-17T00:36:15;6.07;;;3.42;;
18334;SDS011;9293;49.524;10.964;2022-10-17T00:38:45;8.82;;;3.97;;
18334;SDS011;9293;49.524;10.964;2022-10-17T00:41:17;5.40;;;3.25;;
18334;SDS011;9293;49.524;10.964;2022-10-17T00:43:47;8.55;;;3.80;;
18334;SDS011;9293;49.524;10.964;2022-10-17T00:46:31;8.23;;;4.30;;
18334;SDS011;9293;49.524;10.964;2022-10-17T00:49:08;5.88;;;3.35;;
18334;SDS011;9293;49.524;10.964;2022-10-17T00:54:11;11.82;;;4.22;;
18334;SDS011;9293;49.524;10.964;2022-10-17T00:56:43;10.93;;;4.60;;
18334;SDS011;9293;49.524;10.964;2022-10-17T00:59:14;9.43;;;4.07;;
18334;SDS011;9293;49.524;10.964;2022-10-17T01:01:47;8.13;;;3.67;;
18334;SDS011;9293;49.524;10.964;2022-10-17T01:04:25;6.45;;;3.22;;
18334;SDS011;9293;49.524;10.964;2022-10-17T01:06:53;9.15;;;3.70;;
18334;SDS011;9293;49.524;10.964;2022-10-17T01:09:21;7.03;;;3.40;;
18334;SDS011;9293;49.524;10.964;2022-10-17T01:31:57;5.38;;;3.70;;
18334;SDS011;9293;49.524;10.964;2022-10-17T01:34:30;9.73;;;4.95;;
18334;SDS011;9293;49.524;10.964;2022-10-17T01:39:51;10.80;;;4.60;;
18334;SDS011;9293;49.524;10.964;2022-10-17T01:42:25;7.10;;;4.20;;
18334;SDS011;9293;49.524;10.964;2022-10-17T01:45:50;11.27;;;4.80;;
18334;SDS011;9293;49.524;10.964;2022-10-17T01:47:53;7.60;;;4.32;;
18334;SDS011;9293;49.524;10.964;2022-10-17T01:50:26;6.00;;;4.00;;
18334;SDS011;9293;49.524;10.964;2022-10-17T01:53:01;10.18;;;4.13;;
18334;SDS011;9293;49.524;10.964;2022-10-17T01:55:34;9.85;;;4.38;;
18334;SDS011;9293;49.524;10.964;2022-10-17T01:58:06;7.03;;;3.95;;
18334;SDS011;9293;49.524;10.964;2022-10-17T02:00:40;12.40;;;5.32;;
18334;SDS011;9293;49.524;10.964;2022-10-17T02:03:12;10.38;;;5.53;;
18334;SDS011;9293;49.524;10.964;2022-10-17T02:05:43;10.40;;;4.50;;
18334;SDS011;9293;49.524;10.964;2022-10-17T02:08:12;12.15;;;3.58;;
18334;SDS011;9293;49.524;10.964;2022-10-17T02:10:44;5.97;;;3.13;;
18334;SDS011;9293;49.524;10.964;2022-10-17T02:16:31;8.73;;;3.30;;
18334;SDS011;9293;49.524;10.964;2022-10-17T02:36:19;3.50;;;1.52;;
18334;SDS011;9293;49.524;10.964;2022-10-17T02:38:50;3.28;;;1.80;;
18334;SDS011;9293;49.524;10.964;2022-10-17T02:41:21;3.63;;;1.65;;
18334;SDS011;9293;49.524;10.964;2022-10-17T02:43:50;2.53;;;1.27;;
18334;SDS011;9293;49.524;10.964;2022-10-17T02:46:25;2.22;;;1.38;;
18334;SDS011;9293;49.524;10.964;2022-10-17T02:49:30;3.72;;;2.00;;
18334;SDS011;9293;49.524;10.964;2022-10-17T02:52:01;3.38;;;2.08;;
18334;SDS011;9293;49.524;10.964;2022-10-17T02:54:38;4.93;;;2.30;;
18334;SDS011;9293;49.524;10.964;2022-10-17T02:57:11;3.38;;;1.98;;
18334;SDS011;9293;49.524;10.964;2022-10-17T02:59:46;4.03;;;2.28;;
18334;SDS011;9293;49.524;10.964;2022-10-17T03:02:15;3.63;;;1.90;;
18334;SDS011;9293;49.524;10.964;2022-10-17T03:04:44;5.03;;;2.03;;
18334;SDS011;9293;49.524;10.964;2022-10-17T03:07:14;7.50;;;2.67;;
18334;SDS011;9293;49.524;10.964;2022-10-17T03:09:42;8.93;;;2.75;;
18334;SDS011;9293;49.524;10.964;2022-10-17T03:12:11;10.02;;;3.78;;
18334;SDS011;9293;49.524;10.964;2022-10-17T03:14:39;11.43;;;3.67;;
18334;SDS011;9293;49.524;10.964;2022-10-17T03:17:07;5.38;;;3.60;;
18334;SDS011;9293;49.524;10.964;2022-10-17T03:19:35;10.55;;;4.43;;
18334;SDS011;9293;49.524;10.964;2022-10-17T03:22:07;10.40;;;4.95;;
18334;SDS011;9293;49.524;10.964;2022-10-17T03:24:44;7.95;;;3.42;;
18334;SDS011;9293;49.524;10.964;2022-10-17T03:27:13;11.73;;;3.35;;
18334;SDS011;9293;49.524;10.964;2022-10-17T03:29:43;7.47;;;3.22;;
18334;SDS011;9293;49.524;10.964;2022-10-17T03:32:13;8.15;;;3.17;;
18334;SDS011;9293;49.524;10.964;2022-10-17T03:34:42;8.27;;;2.75;;
18334;SDS011;9293;49.524;10.964;2022-10-17T03:37:09;6.35;;;2.95;;
18334;SDS011;9293;49.524;10.964;2022-10-17T03:39:39;8.02;;;2.90;;
18334;SDS011;9293;49.524;10.964;2022-10-17T03:42:07;9.52;;;2.90;;
18334;SDS011;9293;49.524;10.964;2022-10-17T03:44:35;5.25;;;3.20;;
18334;SDS011;9293;49.524;10.964;2022-10-17T03:47:03;7.47;;;3.35;;
18334;SDS011;9293;49.524;10.964;2022-10-17T03:49:37;12.35;;;3.72;;
18334;SDS011;9293;49.524;10.964;2022-10-17T03:52:09;11.35;;;3.53;;
18334;SDS011;9293;49.524;10.964;2022-10-17T03:54:39;7.85;;;2.78;;
18334;SDS011;9293;49.524;10.964;2022-10-17T03:57:07;7.50;;;3.28;;
18334;SDS011;9293;49.524;10.964;2022-10-17T03:59:35;3.97;;;2.45;;
18334;SDS011;9293;49.524;10.964;2022-10-17T04:02:09;5.40;;;2.60;;
18334;SDS011;9293;49.524;10.964;2022-10-17T04:04:37;4.47;;;3.00;;
18334;SDS011;9293;49.524;10.964;2022-10-17T04:07:05;7.05;;;2.92;;
18334;SDS011;9293;49.524;10.964;2022-10-17T04:09:37;7.75;;;3.67;;
18334;SDS011;9293;49.524;10.964;2022-10-17T04:12:11;11.52;;;6.05;;
18334;SDS011;9293;49.524;10.964;2022-10-17T04:14:39;10.52;;;4.35;;
18334;SDS011;9293;49.524;10.964;2022-10-17T04:17:07;7.20;;;3.40;;
18334;SDS011;9293;49.524;10.964;2022-10-17T04:19:37;10.63;;;4.22;;
18334;SDS011;9293;49.524;10.964;2022-10-17T04:22:05;4.70;;;3.90;;
18334;SDS011;9293;49.524;10.964;2022-10-17T04:24:43;4.68;;;3.83;;
18334;SDS011;9293;49.524;10.964;2022-10-17T04:27:23;10.45;;;5.13;;
18334;SDS011;9293;49.524;10.964;2022-10-17T04:29:52;11.23;;;5.38;;
18334;SDS011;9293;49.524;10.964;2022-10-17T04:32:22;8.70;;;4.57;;
18334;SDS011;9293;49.524;10.964;2022-10-17T04:35:00;6.20;;;4.38;;
18334;SDS011;9293;49.524;10.964;2022-10-17T04:37:28;6.85;;;3.33;;
18334;SDS011;9293;49.524;10.964;2022-10-17T04:40:04;7.93;;;3.70;;
18334;SDS011;9293;49.524;10.964;2022-10-17T04:42:34;9.18;;;4.45;;
18334;SDS011;9293;49.524;10.964;2022-10-17T04:45:05;9.80;;;3.90;;
18334;SDS011;9293;49.524;10.964;2022-10-17T04:47:35;12.20;;;4.25;;
18334;SDS011;9293;49.524;10.964;2022-10-17T04:50:03;10.23;;;3.70;;
18334;SDS011;9293;49.524;10.964;2022-10-17T04:52:34;6.30;;;4.30;;
18334;SDS011;9293;49.524;10.964;2022-10-17T04:55:07;12.15;;;5.18;;
18334;SDS011;9293;49.524;10.964;2022-10-17T04:57:38;10.07;;;4.78;;
18334;SDS011;9293;49.524;10.964;2022-10-17T05:00:18;8.82;;;5.22;;
18334;SDS011;9293;49.524;10.964;2022-10-17T05:03:02;10.35;;;4.90;;
18334;SDS011;9293;49.524;10.964;2022-10-17T05:05:31;10.02;;;5.05;;
18334;SDS011;9293;49.524;10.964;2022-10-17T05:08:01;8.85;;;5.57;;
18334;SDS011;9293;49.524;10.964;2022-10-17T05:10:40;16.88;;;4.78;;
18334;SDS011;9293;49.524;10.964;2022-10-17T05:13:39;8.40;;;4.57;;
18334;SDS011;9293;49.524;10.964;2022-10-17T05:16:07;11.93;;;6.32;;
18334;SDS011;9293;49.524;10.964;2022-10-17T05:18:39;11.55;;;6.63;;
18334;SDS011;9293;49.524;10.964;2022-10-17T05:21:07;11.88;;;5.32;;
18334;SDS011;9293;49.524;10.964;2022-10-17T05:23:36;8.73;;;3.88;;
18334;SDS011;9293;49.524;10.964;2022-10-17T05:26:06;7.57;;;4.38;;
18334;SDS011;9293;49.524;10.964;2022-10-17T05:28:34;6.50;;;4.07;;
18334;SDS011;9293;49.524;10.964;2022-10-17T05:31:04;6.70;;;3.97;;
18334;SDS011;9293;49.524;10.964;2022-10-17T05:33:33;4.95;;;3.45;;
18334;SDS011;9293;49.524;10.964;2022-10-17T05:36:01;8.27;;;4.30;;
18334;SDS011;9293;49.524;10.964;2022-10-17T05:38:29;5.65;;;3.63;;
18334;SDS011;9293;49.524;10.964;2022-10-17T05:40:58;9.98;;;4.18;;
18334;SDS011;9293;49.524;10.964;2022-10-17T05:43:27;9.05;;;4.20;;
18334;SDS011;9293;49.524;10.964;2022-10-17T05:46:01;9.23;;;3.90;;
18334;SDS011;9293;49.524;10.964;2022-10-17T05:48:31;9.65;;;3.90;;
18334;SDS011;9293;49.524;10.964;2022-10-17T05:51:00;5.03;;;3.45;;
18334;SDS011;9293;49.524;10.964;2022-10-17T05:53:32;9.02;;;4.20;;
18334;SDS011;9293;49.524;10.964;2022-10-17T05:56:05;10.60;;;4.45;;
18334;SDS011;9293;49.524;10.964;2022-10-17T05:58:35;12.45;;;4.45;;
18334;SDS011;9293;49.524;10.964;2022-10-17T06:01:35;8.88;;;4.47;;
18334;SDS011;9293;49.524;10.964;2022-10-17T06:04:03;5.55;;;4.35;;
18334;SDS011;9293;49.524;10.964;2022-10-17T06:06:31;6.30;;;4.13;;
18334;SDS011;9293;49.524;10.964;2022-10-17T06:09:00;8.48;;;4.18;;
18334;SDS011;9293;49.524;10.964;2022-10-17T06:11:31;9.13;;;4.43;;
18334;SDS011;9293;49.524;10.964;2022-10-17T06:14:04;8.73;;;4.28;;
18334;SDS011;9293;49.524;10.964;2022-10-17T06:16:34;9.95;;;4.60;;
18334;SDS011;9293;49.524;10.964;2022-10-17T06:19:02;5.70;;;4.43;;
18334;SDS011;9293;49.524;10.964;2022-10-17T06:21:30;10.25;;;4.40;;
18334;SDS011;9293;49.524;10.964;2022-10-17T06:24:08;6.13;;;3.63;;
18334;SDS011;9293;49.524;10.964;2022-10-17T06:26:39;9.95;;;5.10;;
18334;SDS011;9293;49.524;10.964;2022-10-17T06:29:08;6.88;;;3.60;;
18334;SDS011;9293;49.524;10.964;2022-10-17T06:31:44;9.10;;;4.32;;
18334;SDS011;9293;49.524;10.964;2022-10-17T06:34:12;8.00;;;3.80;;
18334;SDS011;9293;49.524;10.964;2022-10-17T06:36:40;7.93;;;3.92;;
18334;SDS011;9293;49.524;10.964;2022-10-17T06:39:09;8.15;;;3.10;;
18334;SDS011;9293;49.524;10.964;2022-10-17T06:41:42;5.22;;;2.92;;
18334;SDS011;9293;49.524;10.964;2022-10-17T06:44:19;3.58;;;2.65;;
18334;SDS011;9293;49.524;10.964;2022-10-17T06:47:08;5.50;;;3.35;;
18334;SDS011;9293;49.524;10.964;2022-10-17T06:49:42;4.90;;;3.13;;
18334;SDS011;9293;49.524;10.964;2022-10-17T06:52:21;4.80;;;2.95;;
18334;SDS011;9293;49.524;10.964;2022-10-17T06:55:09;10.27;;;4.30;;
18334;SDS011;9293;49.524;10.964;2022-10-17T06:58:00;6.82;;;3.92;;
18334;SDS011;9293;49.524;10.964;2022-10-17T07:00:41;6.63;;;3.47;;
18334;SDS011;9293;49.524;10.964;2022-10-17T07:03:11;7.03;;;3.50;;
18334;SDS011;9293;49.524;10.964;2022-10-17T07:05:39;6.40;;;4.53;;
18334;SDS011;9293;49.524;10.964;2022-10-17T07:08:07;9.82;;;6.15;;
18334;SDS011;9293;49.524;10.964;2022-10-17T07:10:37;6.57;;;4.32;;
18334;SDS011;9293;49.524;10.964;2022-10-17T07:13:06;12.23;;;4.70;;
18334;SDS011;9293;49.524;10.964;2022-10-17T07:15:35;9.45;;;5.03;;
18334;SDS011;9293;49.524;10.964;2022-10-17T07:18:04;10.68;;;5.13;;
18334;SDS011;9293;49.524;10.964;2022-10-17T07:20:32;9.40;;;4.63;;
18334;SDS011;9293;49.524;10.964;2022-10-17T07:23:01;13.38;;;5.50;;
18334;SDS011;9293;49.524;10.964;2022-10-17T07:25:29;9.70;;;4.68;;
18334;SDS011;9293;49.524;10.964;2022-10-17T07:28:05;8.02;;;4.32;;
18334;SDS011;9293;49.524;10.964;2022-10-17T07:30:34;10.63;;;4.57;;
18334;SDS011;9293;49.524;10.964;2022-10-17T07:33:09;9.73;;;4.80;;
18334;SDS011;9293;49.524;10.964;2022-10-17T07:35:38;9.02;;;4.70;;
18334;SDS011;9293;49.524;10.964;2022-10-17T07:38:11;10.18;;;4.60;;
18334;SDS011;9293;49.524;10.964;2022-10-17T07:40:39;9.32;;;4.60;;
18334;SDS011;9293;49.524;10.964;2022-10-17T07:43:10;9.05;;;4.70;;
18334;SDS011;9293;49.524;10.964;2022-10-17T07:45:39;10.55;;;3.92;;
18334;SDS011;9293;49.524;10.964;2022-10-17T07:48:08;8.15;;;4.40;;
18334;SDS011;9293;49.524;10.964;2022-10-17T07:50:36;8.00;;;4.25;;
18334;SDS011;9293;49.524;10.964;2022-10-17T07:53:04;10.70;;;4.53;;
18334;SDS011;9293;49.524;10.964;2022-10-17T07:55:32;15.05;;;8.07;;
18334;SDS011;9293;49.524;10.964;2022-10-17T07:58:00;7.55;;;3.97;;
18334;SDS011;9293;49.524;10.964;2022-10-17T08:00:28;8.98;;;4.13;;
18334;SDS011;9293;49.524;10.964;2022-10-17T08:02:57;10.45;;;5.13;;
18334;SDS011;9293;49.524;10.964;2022-10-17T08:05:25;13.45;;;4.75;;
18334;SDS011;9293;49.524;10.964;2022-10-17T08:07:57;14.07;;;5.18;;
18334;SDS011;9293;49.524;10.964;2022-10-17T08:10:25;10.13;;;4.38;;
18334;SDS011;9293;49.524;10.964;2022-10-17T08:12:56;6.90;;;4.47;;
18334;SDS011;9293;49.524;10.964;2022-10-17T08:15:25;6.13;;;4.00;;
18334;SDS011;9293;49.524;10.964;2022-10-17T08:17:57;10.25;;;3.67;;
18334;SDS011;9293;49.524;10.964;2022-10-17T08:20:25;11.35;;;4.10;;
18334;SDS011;9293;49.524;10.964;2022-10-17T08:22:53;8.43;;;3.90;;
18334;SDS011;9293;49.524;10.964;2022-10-17T08:25:22;7.30;;;3.60;;
18334;SDS011;9293;49.524;10.964;2022-10-17T08:27:50;6.38;;;4.18;;
18334;SDS011;9293;49.524;10.964;2022-10-17T08:30:18;5.10;;;3.80;;
18334;SDS011;9293;49.524;10.964;2022-10-17T08:32:46;9.27;;;3.97;;
18334;SDS011;9293;49.524;10.964;2022-10-17T08:35:14;13.13;;;4.40;;
18334;SDS011;9293;49.524;10.964;2022-10-17T08:37:42;7.55;;;4.28;;
18334;SDS011;9293;49.524;10.964;2022-10-17T08:40:18;8.73;;;4.85;;
18334;SDS011;9293;49.524;10.964;2022-10-17T08:45:59;18.60;;;4.80;;
18334;SDS011;9293;49.524;10.964;2022-10-17T08:48:33;10.77;;;3.90;;
18334;SDS011;9293;49.524;10.964;2022-10-17T08:51:22;6.28;;;3.38;;
18334;SDS011;9293;49.524;10.964;2022-10-17T08:53:55;7.85;;;3.45;;
18334;SDS011;9293;49.524;10.964;2022-10-17T08:56:45;9.68;;;3.42;;
18334;SDS011;9293;49.524;10.964;2022-10-17T08:59:17;5.50;;;3.17;;
18334;SDS011;9293;49.524;10.964;2022-10-17T09:01:50;7.07;;;3.22;;
18334;SDS011;9293;49.524;10.964;2022-10-17T09:07:07;11.18;;;6.50;;
18334;SDS011;9293;49.524;10.964;2022-10-17T09:20:56;10.07;;;3.25;;
18334;SDS011;9293;49.524;10.964;2022-10-17T09:23:46;6.55;;;3.88;;
18334;SDS011;9293;49.524;10.964;2022-10-17T09:26:34;7.95;;;3.72;;
18334;SDS011;9293;49.524;10.964;2022-10-17T09:29:04;8.55;;;3.67;;
18334;SDS011;9293;49.524;10.964;2022-10-17T09:32:20;7.28;;;3.28;;
18334;SDS011;9293;49.524;10.964;2022-10-17T09:34:51;6.80;;;3.25;;
18334;SDS011;9293;49.524;10.964;2022-10-17T09:37:21;5.95;;;3.15;;
18334;SDS011;9293;49.524;10.964;2022-10-17T09:39:58;5.57;;;3.30;;
18334;SDS011;9293;49.524;10.964;2022-10-17T09:42:26;8.10;;;3.22;;
18334;SDS011;9293;49.524;10.964;2022-10-17T09:47:33;5.35;;;3.17;;
18334;SDS011;9293;49.524;10.964;2022-10-17T09:50:19;6.80;;;3.10;;
18334;SDS011;9293;49.524;10.964;2022-10-17T09:53:00;6.28;;;3.40;;
18334;SDS011;9293;49.524;10.964;2022-10-17T09:55:44;5.20;;;3.00;;
18334;SDS011;9293;49.524;10.964;2022-10-17T09:58:15;8.00;;;3.15;;
18334;SDS011;9293;49.524;10.964;2022-10-17T10:00:44;8.18;;;2.75;;
18334;SDS011;9293;49.524;10.964;2022-10-17T10:03:15;7.90;;;3.15;;
18334;SDS011;9293;49.524;10.964;2022-10-17T10:06:04;8.55;;;3.88;;
18334;SDS011;9293;49.524;10.964;2022-10-17T10:11:24;6.13;;;2.78;;
18334;SDS011;9293;49.524;10.964;2022-10-17T10:14:10;8.47;;;2.70;;
18334;SDS011;9293;49.524;10.964;2022-10-17T10:16:46;4.68;;;2.25;;
18334;SDS011;9293;49.524;10.964;2022-10-17T10:19:48;6.20;;;2.72;;
18334;SDS011;9293;49.524;10.964;2022-10-17T10:22:20;5.82;;;3.08;;
18334;SDS011;9293;49.524;10.964;2022-10-17T10:27:43;5.22;;;2.30;;
18334;SDS011;9293;49.524;10.964;2022-10-17T10:30:17;4.72;;;2.42;;
18334;SDS011;9293;49.524;10.964;2022-10-17T10:32:48;4.30;;;2.78;;
18334;SDS011;9293;49.524;10.964;2022-10-17T10:35:23;9.00;;;3.13;;
18334;SDS011;9293;49.524;10.964;2022-10-17T10:37:59;6.53;;;2.70;;
18334;SDS011;9293;49.524;10.964;2022-10-17T10:40:32;5.97;;;2.53;;
18334;SDS011;9293;49.524;10.964;2022-10-17T10:43:15;7.38;;;2.80;;
18334;SDS011;9293;49.524;10.964;2022-10-17T10:46:02;5.07;;;2.80;;
18334;SDS011;9293;49.524;10.964;2022-10-17T10:48:33;6.05;;;2.60;;
18334;SDS011;9293;49.524;10.964;2022-10-17T10:56:21;6.97;;;2.42;;
18334;SDS011;9293;49.524;10.964;2022-10-17T11:07:12;4.65;;;2.08;;
18334;SDS011;9293;49.524;10.964;2022-10-17T11:10:02;6.43;;;1.90;;
18334;SDS011;9293;49.524;10.964;2022-10-17T11:24:27;6.20;;;2.20;;
18334;SDS011;9293;49.524;10.964;2022-10-17T11:27:16;5.18;;;1.88;;
18334;SDS011;9293;49.524;10.964;2022-10-17T11:29:48;4.10;;;2.25;;
18334;SDS011;9293;49.524;10.964;2022-10-17T11:32:18;3.40;;;2.28;;
18334;SDS011;9293;49.524;10.964;2022-10-17T11:34:53;5.63;;;2.40;;
18334;SDS011;9293;49.524;10.964;2022-10-17T11:37:37;4.22;;;2.30;;
18334;SDS011;9293;49.524;10.964;2022-10-17T11:40:15;3.78;;;2.17;;
18334;SDS011;9293;49.524;10.964;2022-10-17T11:45:26;5.93;;;2.00;;
18334;SDS011;9293;49.524;10.964;2022-10-17T11:47:59;3.58;;;2.10;;
18334;SDS011;9293;49.524;10.964;2022-10-17T11:50:38;4.47;;;2.60;;
18334;SDS011;9293;49.524;10.964;2022-10-17T11:53:32;4.15;;;2.00;;
18334;SDS011;9293;49.524;10.964;2022-10-17T11:56:09;2.40;;;2.00;;
18334;SDS011;9293;49.524;10.964;2022-10-17T11:58:48;5.32;;;2.00;;
18334;SDS011;9293;49.524;10.964;2022-10-17T12:01:34;5.55;;;1.75;;
18334;SDS011;9293;49.524;10.964;2022-10-17T12:06:47;4.43;;;1.98;;
18334;SDS011;9293;49.524;10.964;2022-10-17T12:09:45;3.70;;;2.05;;
18334;SDS011;9293;49.524;10.964;2022-10-17T12:12:28;2.60;;;1.85;;
18334;SDS011;9293;49.524;10.964;2022-10-17T12:18:00;4.25;;;2.20;;
18334;SDS011;9293;49.524;10.964;2022-10-17T12:20:30;3.03;;;1.98;;
18334;SDS011;9293;49.524;10.964;2022-10-17T12:25:29;2.95;;;1.50;;
18334;SDS011;9293;49.524;10.964;2022-10-17T12:28:09;3.83;;;2.10;;
18334;SDS011;9293;49.524;10.964;2022-10-17T12:31:03;3.70;;;1.80;;
18334;SDS011;9293;49.524;10.964;2022-10-17T12:33:46;3.05;;;1.75;;
18334;SDS011;9293;49.524;10.964;2022-10-17T12:38:46;9.25;;;2.33;;
18334;SDS011;9293;49.524;10.964;2022-10-17T12:41:51;3.83;;;2.03;;
18334;SDS011;9293;49.524;10.964;2022-10-17T12:46:55;4.35;;;2.10;;
18334;SDS011;9293;49.524;10.964;2022-10-17T12:52:15;3.78;;;1.67;;
18334;SDS011;9293;49.524;10.964;2022-10-17T12:54:56;4.75;;;1.85;;
18334;SDS011;9293;49.524;10.964;2022-10-17T12:57:40;2.40;;;1.92;;
18334;SDS011;9293;49.524;10.964;2022-10-17T13:00:35;2.35;;;1.95;;
18334;SDS011;9293;49.524;10.964;2022-10-17T13:03:45;6.40;;;1.98;;
18334;SDS011;9293;49.524;10.964;2022-10-17T13:06:26;3.67;;;1.90;;
18334;SDS011;9293;49.524;10.964;2022-10-17T13:09:03;5.50;;;1.63;;
18334;SDS011;9293;49.524;10.964;2022-10-17T13:11:39;3.88;;;2.05;;
18334;SDS011;9293;49.524;10.964;2022-10-17T13:14:10;7.80;;;2.40;;
18334;SDS011;9293;49.524;10.964;2022-10-17T13:16:50;6.07;;;2.30;;
18334;SDS011;9293;49.524;10.964;2022-10-17T13:19:23;3.25;;;2.17;;
18334;SDS011;9293;49.524;10.964;2022-10-17T13:21:59;4.80;;;2.30;;
18334;SDS011;9293;49.524;10.964;2022-10-17T13:24:33;4.53;;;2.00;;
18334;SDS011;9293;49.524;10.964;2022-10-17T13:27:05;3.30;;;2.00;;
18334;SDS011;9293;49.524;10.964;2022-10-17T13:29:47;4.53;;;3.55;;
18334;SDS011;9293;49.524;10.964;2022-10-17T13:32:15;2.80;;;2.10;;
18334;SDS011;9293;49.524;10.964;2022-10-17T13:34:43;3.58;;;2.00;;
18334;SDS011;9293;49.524;10.964;2022-10-17T13:37:12;4.63;;;2.30;;
18334;SDS011;9293;49.524;10.964;2022-10-17T13:39:42;5.82;;;2.65;;
18334;SDS011;9293;49.524;10.964;2022-10-17T13:42:28;3.25;;;1.65;;
18334;SDS011;9293;49.524;10.964;2022-10-17T13:45:02;4.85;;;2.03;;
18334;SDS011;9293;49.524;10.964;2022-10-17T13:47:31;3.05;;;1.83;;
18334;SDS011;9293;49.524;10.964;2022-10-17T13:50:04;4.88;;;1.98;;
18334;SDS011;9293;49.524;10.964;2022-10-17T13:55:51;7.07;;;1.77;;
18334;SDS011;9293;49.524;10.964;2022-10-17T13:58:51;4.10;;;1.88;;
18334;SDS011;9293;49.524;10.964;2022-10-17T14:01:23;2.33;;;1.50;;
18334;SDS011;9293;49.524;10.964;2022-10-17T14:03:52;4.15;;;1.67;;
18334;SDS011;9293;49.524;10.964;2022-10-17T14:06:33;3.25;;;1.30;;
18334;SDS011;9293;49.524;10.964;2022-10-17T14:09:23;3.35;;;1.60;;
18334;SDS011;9293;49.524;10.964;2022-10-17T14:12:10;3.95;;;1.67;;
18334;SDS011;9293;49.524;10.964;2022-10-17T14:14:39;3.28;;;1.75;;
18334;SDS011;9293;49.524;10.964;2022-10-17T14:17:38;3.97;;;1.60;;
18334;SDS011;9293;49.524;10.964;2022-10-17T14:20:15;2.83;;;1.73;;
18334;SDS011;9293;49.524;10.964;2022-10-17T14:23:25;4.00;;;2.30;;
18334;SDS011;9293;49.524;10.964;2022-10-17T14:29:03;4.53;;;2.10;;
18334;SDS011;9293;49.524;10.964;2022-10-17T14:31:57;11.73;;;2.85;;
18334;SDS011;9293;49.524;10.964;2022-10-17T14:34:37;8.05;;;2.40;;
18334;SDS011;9293;49.524;10.964;2022-10-17T14:37:27;6.03;;;2.45;;
18334;SDS011;9293;49.524;10.964;2022-10-17T14:40:18;3.55;;;2.10;;
18334;SDS011;9293;49.524;10.964;2022-10-17T14:42:47;8.20;;;2.60;;
18334;SDS011;9293;49.524;10.964;2022-10-17T14:48:18;6.13;;;2.13;;
18334;SDS011;9293;49.524;10.964;2022-10-17T14:51:10;4.78;;;2.63;;
18334;SDS011;9293;49.524;10.964;2022-10-17T14:56:49;4.75;;;2.25;;
18334;SDS011;9293;49.524;10.964;2022-10-17T14:59:19;7.32;;;2.60;;
18334;SDS011;9293;49.524;10.964;2022-10-17T15:02:10;13.82;;;9.93;;
18334;SDS011;9293;49.524;10.964;2022-10-17T15:04:39;10.25;;;3.80;;
18334;SDS011;9293;49.524;10.964;2022-10-17T15:07:12;8.32;;;2.65;;
18334;SDS011;9293;49.524;10.964;2022-10-17T15:09:42;5.47;;;2.60;;
18334;SDS011;9293;49.524;10.964;2022-10-17T15:12:14;5.25;;;3.03;;
18334;SDS011;9293;49.524;10.964;2022-10-17T15:14:44;11.98;;;4.22;;
18334;SDS011;9293;49.524;10.964;2022-10-17T15:17:18;10.60;;;6.73;;
18334;SDS011;9293;49.524;10.964;2022-10-17T15:19:49;7.28;;;3.00;;
18334;SDS011;9293;49.524;10.964;2022-10-17T15:22:18;6.47;;;3.70;;
18334;SDS011;9293;49.524;10.964;2022-10-17T15:24:46;6.03;;;2.90;;
18334;SDS011;9293;49.524;10.964;2022-10-17T15:29:49;9.10;;;2.60;;
18334;SDS011;9293;49.524;10.964;2022-10-17T15:32:19;8.88;;;5.53;;
18334;SDS011;9293;49.524;10.964;2022-10-17T15:34:47;6.38;;;3.42;;
18334;SDS011;9293;49.524;10.964;2022-10-17T15:37:16;8.77;;;3.33;;
18334;SDS011;9293;49.524;10.964;2022-10-17T15:39:49;9.38;;;3.92;;
18334;SDS011;9293;49.524;10.964;2022-10-17T15:42:21;8.45;;;3.60;;
18334;SDS011;9293;49.524;10.964;2022-10-17T15:44:52;12.75;;;4.88;;
18334;SDS011;9293;49.524;10.964;2022-10-17T15:47:28;8.65;;;3.65;;
18334;SDS011;9293;49.524;10.964;2022-10-17T15:50:00;7.95;;;3.28;;
18334;SDS011;9293;49.524;10.964;2022-10-17T15:52:28;9.75;;;3.38;;
18334;SDS011;9293;49.524;10.964;2022-10-17T15:54:59;5.55;;;3.25;;
18334;SDS011;9293;49.524;10.964;2022-10-17T16:00:01;7.30;;;2.83;;
18334;SDS011;9293;49.524;10.964;2022-10-17T16:02:50;10.98;;;3.10;;
18334;SDS011;9293;49.524;10.964;2022-10-17T16:05:21;4.53;;;2.67;;
18334;SDS011;9293;49.524;10.964;2022-10-17T16:07:55;8.57;;;3.00;;
18334;SDS011;9293;49.524;10.964;2022-10-17T16:10:24;7.78;;;2.95;;
18334;SDS011;9293;49.524;10.964;2022-10-17T16:12:52;8.55;;;3.20;;
18334;SDS011;9293;49.524;10.964;2022-10-17T16:15:21;9.85;;;3.67;;
18334;SDS011;9293;49.524;10.964;2022-10-17T16:17:51;10.23;;;3.30;;
18334;SDS011;9293;49.524;10.964;2022-10-17T16:20:21;10.68;;;3.50;;
18334;SDS011;9293;49.524;10.964;2022-10-17T16:22:50;5.97;;;3.10;;
18334;SDS011;9293;49.524;10.964;2022-10-17T16:27:47;7.63;;;2.80;;
18334;SDS011;9293;49.524;10.964;2022-10-17T16:30:17;8.50;;;2.70;;
18334;SDS011;9293;49.524;10.964;2022-10-17T16:32:47;5.93;;;3.38;;
18334;SDS011;9293;49.524;10.964;2022-10-17T16:35:17;9.10;;;2.90;;
18334;SDS011;9293;49.524;10.964;2022-10-17T16:37:47;8.50;;;3.60;;
18334;SDS011;9293;49.524;10.964;2022-10-17T16:40:15;8.30;;;3.20;;
18334;SDS011;9293;49.524;10.964;2022-10-17T16:42:43;11.45;;;3.53;;
18334;SDS011;9293;49.524;10.964;2022-10-17T16:45:16;8.20;;;3.20;;
18334;SDS011;9293;49.524;10.964;2022-10-17T16:47:51;7.30;;;2.80;;
18334;SDS011;9293;49.524;10.964;2022-10-17T16:50:19;8.40;;;3.60;;
18334;SDS011;9293;49.524;10.964;2022-10-17T16:52:47;6.75;;;2.75;;
18334;SDS011;9293;49.524;10.964;2022-10-17T16:55:15;9.02;;;2.97;;
18334;SDS011;9293;49.524;10.964;2022-10-17T16:57:45;5.57;;;2.67;;
18334;SDS011;9293;49.524;10.964;2022-10-17T17:00:15;8.55;;;3.00;;
18334;SDS011;9293;49.524;10.964;2022-10-17T17:02:45;8.93;;;2.88;;
18334;SDS011;9293;49.524;10.964;2022-10-17T17:05:14;9.60;;;3.03;;
18334;SDS011;9293;49.524;10.964;2022-10-17T17:07:42;9.73;;;2.88;;
18334;SDS011;9293;49.524;10.964;2022-10-17T17:10:12;13.68;;;3.35;;
18334;SDS011;9293;49.524;10.964;2022-10-17T17:12:40;5.43;;;2.85;;
18334;SDS011;9293;49.524;10.964;2022-10-17T17:15:10;8.03;;;2.87;;
18334;SDS011;9293;49.524;10.964;2022-10-17T17:17:38;9.70;;;3.30;;
18334;SDS011;9293;49.524;10.964;2022-10-17T17:22:47;11.07;;;2.72;;
18334;SDS011;9293;49.524;10.964;2022-10-17T17:25:17;12.05;;;4.32;;
18334;SDS011;9293;49.524;10.964;2022-10-17T17:27:46;5.88;;;2.25;;
18334;SDS011;9293;49.524;10.964;2022-10-17T17:30:14;6.07;;;2.78;;
18334;SDS011;9293;49.524;10.964;2022-10-17T17:32:45;9.00;;;3.58;;
18334;SDS011;9293;49.524;10.964;2022-10-17T17:35:13;9.95;;;3.17;;
18334;SDS011;9293;49.524;10.964;2022-10-17T17:37:41;7.03;;;2.80;;
18334;SDS011;9293;49.524;10.964;2022-10-17T17:40:09;6.15;;;2.97;;
18334;SDS011;9293;49.524;10.964;2022-10-17T17:42:37;7.25;;;3.30;;